^^
Station Historical Data
 
Daily Summary for October 24, 2014 Units:  English    Metric   Both
« Previous Day
Next Day »
Daily Weekly Monthly Yearly Custom
  Current: High: Low: Average:
Temperature: 55.8 °F 58.6 °F 55.6 °F 56.6 °F
Dew Point: 46.9 °F 46.9 °F 44.8 °F 45.8 °F
Humidity: 72% 72% 61% 67%
Wind Speed: 5.8mph 12.7mph 1.2mph 7.5mph
Wind Gust: 5.8mph 12.7mph - -
WindNNE - - NW
Pressure: 29.85 in 29.85 in 29.83 in -
Precipitation: 0.00 in      
Historical Graphs
 
 
Tabular Data for October 24, 2014
Time Temperature Dew Point Pressure Wind Wind Speed Wind Gust Humidity Rainfall Rate (Hourly)
00:02 58.6 °F 45.2 °F 29.84 in NW 5.8 mph 5.8 mph 61% 0.00 in
00:07 58.5 °F 45.1 °F 29.84 in NW 5.8 mph 5.8 mph 61% 0.00 in
00:12 58.4 °F 45.0 °F 29.84 in WNW 5.8 mph 5.8 mph 61% 0.00 in
00:17 58.2 °F 44.8 °F 29.84 in WNW 10.4 mph 10.4 mph 61% 0.00 in
00:22 58.1 °F 45.1 °F 29.84 in NW 5.8 mph 5.8 mph 62% 0.00 in
00:27 58.0 °F 45.0 °F 29.84 in NNW 10.4 mph 10.4 mph 62% 0.00 in
00:32 57.9 °F 45.0 °F 29.84 in NNW 9.2 mph 9.2 mph 62% 0.00 in
00:37 57.8 °F 44.9 °F 29.84 in NNW 12.7 mph 12.7 mph 62% 0.00 in
00:42 57.6 °F 45.1 °F 29.84 in North 6.9 mph 6.9 mph 63% 0.00 in
00:47 57.5 °F 45.0 °F 29.84 in WSW 4.6 mph 4.6 mph 63% 0.00 in
00:52 57.3 °F 44.8 °F 29.84 in North 6.9 mph 6.9 mph 63% 0.00 in
00:57 57.1 °F 45.0 °F 29.84 in NW 8.1 mph 8.1 mph 64% 0.00 in
01:02 56.9 °F 44.8 °F 29.84 in WNW 10.0 mph 10.0 mph 64% 0.00 in
01:07 56.9 °F 44.8 °F 29.84 in NNW 8.1 mph 8.1 mph 64% 0.00 in
01:12 56.8 °F 45.2 °F 29.84 in NW 4.6 mph 4.6 mph 65% 0.00 in
01:17 56.6 °F 45.0 °F 29.84 in NW 10.4 mph 10.4 mph 65% 0.00 in
01:22 56.5 °F 44.9 °F 29.84 in WNW 4.6 mph 4.6 mph 65% 0.00 in
01:27 56.5 °F 45.3 °F 29.84 in NW 9.2 mph 9.2 mph 66% 0.00 in
01:32 56.6 °F 45.4 °F 29.84 in NW 3.0 mph 3.0 mph 66% 0.00 in
01:37 56.6 °F 45.4 °F 29.85 in WNW 5.8 mph 5.8 mph 66% 0.00 in
01:42 56.5 °F 45.3 °F 29.85 in WNW 4.6 mph 4.6 mph 66% 0.00 in
01:47 56.5 °F 45.3 °F 29.84 in NW 5.8 mph 5.8 mph 66% 0.00 in
01:52 56.5 °F 45.7 °F 29.84 in NW 5.8 mph 5.8 mph 67% 0.00 in
01:57 56.5 °F 45.7 °F 29.83 in NW 10.4 mph 10.4 mph 67% 0.00 in
02:02 56.5 °F 45.7 °F 29.83 in NW 11.5 mph 11.5 mph 67% 0.00 in
02:07 56.5 °F 45.7 °F 29.83 in WNW 6.9 mph 6.9 mph 67% 0.00 in
02:12 56.4 °F 46.0 °F 29.83 in NW 11.5 mph 11.5 mph 68% 0.00 in
02:17 56.4 °F 46.0 °F 29.84 in NNW 8.0 mph 8.0 mph 68% 0.00 in
02:22 56.3 °F 45.9 °F 29.84 in NNW 8.1 mph 8.1 mph 68% 0.00 in
02:27 56.2 °F 45.8 °F 29.84 in NW 11.5 mph 11.5 mph 68% 0.00 in
02:32 56.3 °F 45.9 °F 29.84 in WNW 10.0 mph 10.0 mph 68% 0.00 in
02:37 56.2 °F 46.2 °F 29.84 in NW 5.8 mph 5.8 mph 69% 0.00 in
02:42 56.1 °F 46.1 °F 29.84 in West 8.1 mph 8.1 mph 69% 0.00 in
02:47 56.1 °F 46.1 °F 29.85 in WNW 5.8 mph 5.8 mph 69% 0.00 in
02:52 56.0 °F 46.0 °F 29.84 in NNW 6.9 mph 6.9 mph 69% 0.00 in
02:57 56.1 °F 46.1 °F 29.84 in NNW 9.2 mph 9.2 mph 69% 0.00 in
03:02 56.1 °F 46.4 °F 29.84 in NW 6.0 mph 6.0 mph 70% 0.00 in
03:07 56.0 °F 46.4 °F 29.84 in NNW 5.0 mph 5.0 mph 70% 0.00 in
03:12 56.0 °F 46.4 °F 29.84 in WNW 9.2 mph 9.2 mph 70% 0.00 in
03:17 55.9 °F 46.3 °F 29.85 in WNW 5.8 mph 5.8 mph 70% 0.00 in
03:22 56.0 °F 46.4 °F 29.85 in NNW 11.5 mph 11.5 mph 70% 0.00 in
03:27 56.0 °F 46.4 °F 29.85 in NNW 8.1 mph 8.1 mph 70% 0.00 in
03:32 56.0 °F 46.4 °F 29.85 in NNW 10.4 mph 10.4 mph 70% 0.00 in
03:37 56.0 °F 46.7 °F 29.85 in WNW 4.6 mph 4.6 mph 71% 0.00 in
03:42 55.9 °F 46.6 °F 29.85 in North 10.4 mph 10.4 mph 71% 0.00 in
03:47 55.9 °F 46.6 °F 29.84 in NW 6.9 mph 6.9 mph 71% 0.00 in
03:52 55.8 °F 46.5 °F 29.84 in NW 1.2 mph 1.2 mph 71% 0.00 in
03:57 55.7 °F 46.4 °F 29.85 in WSW 5.8 mph 5.8 mph 71% 0.00 in
04:02 55.6 °F 46.7 °F 29.85 in West 8.1 mph 8.1 mph 72% 0.00 in
04:07 55.7 °F 46.8 °F 29.85 in NW 8.1 mph 8.1 mph 72% 0.00 in
04:12 55.7 °F 46.8 °F 29.85 in NW 4.6 mph 4.6 mph 72% 0.00 in
04:17 55.8 °F 46.9 °F 29.85 in North 6.9 mph 6.9 mph 72% 0.00 in
04:22 55.8 °F 46.9 °F 29.85 in NNE 5.8 mph 5.8 mph 72% 0.00 in
Mechanicsburg,PA USA
Compliments of Weather Underground